Time;durP1;ratioP1;P1;durP2;ratioP2;P2;SDS_P1;SDS_P2;PMS_P1;PMS_P2;Temp;Humidity;BMP_temperature;BMP_pressure;BME280_temperature;BME280_humidity;BME280_pressure;Samples;Min_cycle;Max_cycle;Signal;HPM_P1;HPM_P2
2023/03/27 00:01:10;;;;;;;0.40;0.40;;;;;;;8.14;75.32;98942.09;5021628;28;20516;-83
2023/03/27 00:03:38;;;;;;;0.75;0.40;;;;;;;8.12;74.52;98947.53;5019868;28;20050;-84
2023/03/27 00:06:08;;;;;;;1.70;0.60;;;;;;;7.86;75.14;98936.72;5020861;28;20050;-83
2023/03/27 00:08:38;;;;;;;0.60;0.60;;;;;;;7.89;76.56;98938.25;5037380;28;20492;-83
2023/03/27 00:11:06;;;;;;;0.95;0.60;;;;;;;7.94;76.43;98954.53;5016244;28;20103;-85
2023/03/27 00:13:34;;;;;;;0.63;0.63;;;;;;;8.15;76.42;98957.00;5017243;28;20451;-84
2023/03/27 00:16:04;;;;;;;0.98;0.70;;;;;;;8.12;76.36;98970.50;5021643;28;20433;-83
2023/03/27 00:18:32;;;;;;;1.60;0.88;;;;;;;8.15;77.25;98999.31;5018088;28;20042;-84
2023/03/27 00:21:00;;;;;;;2.15;0.93;;;;;;;7.91;75.20;98990.00;5010245;28;20045;-83
2023/03/27 00:23:30;;;;;;;0.90;0.80;;;;;;;8.02;76.20;98984.56;5019210;28;20232;-83
2023/03/27 00:25:57;;;;;;;1.58;0.70;;;;;;;8.10;76.48;98998.91;5028567;28;20224;-79
2023/03/27 00:28:27;;;;;;;2.45;0.75;;;;;;;7.99;74.54;99003.34;5023187;28;20393;-80
2023/03/27 00:30:55;;;;;;;1.15;0.75;;;;;;;7.80;73.83;99003.34;5016754;28;20049;-79
2023/03/27 00:33:23;;;;;;;1.10;0.90;;;;;;;8.03;73.52;99011.84;5021883;28;20049;-80
2023/03/27 00:35:50;;;;;;;1.48;0.98;;;;;;;7.93;73.36;99026.84;4989599;28;20128;-80
2023/03/27 00:38:17;;;;;;;1.90;0.90;;;;;;;7.84;73.39;99023.25;4993832;28;20046;-80
2023/03/27 00:40:49;;;;;;;1.38;0.90;;;;;;;7.92;73.10;99033.97;5021297;28;20045;-80
2023/03/27 00:43:22;;;;;;;1.45;1.00;;;;;;;7.74;72.82;99031.16;5005418;28;20054;-79
2023/03/27 00:45:54;;;;;;;6.38;1.45;;;;;;;7.66;73.17;99046.88;5007663;28;20390;-80
2023/03/27 00:48:21;;;;;;;2.95;1.20;;;;;;;7.78;72.68;99040.47;4992172;28;20061;-82
2023/03/27 00:50:48;;;;;;;5.18;1.52;;;;;;;7.73;72.45;99036.56;4980926;28;20055;-80
2023/03/27 00:53:20;;;;;;;2.47;1.33;;;;;;;7.65;72.22;99050.47;4981503;28;20053;-80
2023/03/27 00:55:49;;;;;;;1.75;1.30;;;;;;;7.75;72.95;99053.97;5014941;28;20038;-84
2023/03/27 00:58:19;;;;;;;2.13;1.52;;;;;;;7.65;72.97;99061.03;5037693;28;20038;-84
2023/03/27 01:00:50;;;;;;;1.48;1.38;;;;;;;7.67;72.76;99063.56;4992218;28;20052;-84
2023/03/27 01:03:17;;;;;;;4.03;1.40;;;;;;;7.67;72.29;99064.38;4990014;28;20064;-84
2023/03/27 01:05:45;;;;;;;3.67;1.60;;;;;;;7.63;71.95;99073.53;5004414;28;20056;-85
2023/03/27 01:08:13;;;;;;;2.25;1.40;;;;;;;7.69;72.24;99078.31;4952468;28;20494;-85
2023/03/27 01:10:49;;;;;;;4.40;1.60;;;;;;;7.86;72.20;99079.47;4933737;28;20452;-84
2023/03/27 01:13:30;;;;;;;5.45;1.60;;;;;;;7.85;71.41;99096.28;4900387;28;20394;-85
2023/03/27 01:16:04;;;;;;;9.60;2.20;;;;;;;7.80;70.53;99099.31;4902294;28;20044;-85
2023/03/27 01:18:52;;;;;;;4.22;1.73;;;;;;;7.76;70.99;99100.59;4893207;29;20127;-84
2023/03/27 01:21:44;;;;;;;3.72;2.00;;;;;;;7.79;71.88;99102.94;4878202;29;20040;-85
2023/03/27 01:24:31;;;;;;;3.25;1.77;;;;;;;7.82;70.50;99101.84;4890064;29;20127;-85
2023/03/27 01:27:19;;;;;;;1.58;1.48;;;;;;;7.93;71.86;99106.16;4876024;29;20051;-85
2023/03/27 01:29:56;;;;;;;3.20;2.20;;;;;;;7.91;71.19;99111.59;4863603;29;20051;-85
2023/03/27 01:32:35;;;;;;;2.85;1.75;;;;;;;7.72;70.41;99117.66;4925718;28;20055;-85
2023/03/27 01:35:36;;;;;;;4.10;1.85;;;;;;;7.64;70.53;99112.22;4895145;28;20118;-84
2023/03/27 01:38:29;;;;;;;4.22;2.10;;;;;;;7.65;70.54;99123.63;4934151;28;20513;-84
2023/03/27 01:41:10;;;;;;;4.28;2.00;;;;;;;7.65;70.87;99134.19;4943651;28;20053;-85
2023/03/27 01:43:46;;;;;;;3.63;1.70;;;;;;;7.62;71.30;99151.16;4943378;28;20042;-85
2023/03/27 01:46:23;;;;;;;4.07;1.42;;;;;;;7.56;70.96;99147.25;5050404;28;20367;-85
2023/03/27 01:48:58;;;;;;;5.18;1.80;;;;;;;7.63;70.72;99152.81;4970200;28;20136;-85
2023/03/27 01:51:35;;;;;;;3.83;1.40;;;;;;;7.53;70.50;99152.81;4970812;28;20049;-85
2023/03/27 01:54:24;;;;;;;2.97;1.58;;;;;;;7.52;70.12;99163.50;4964368;28;20510;-85
2023/03/27 01:57:00;;;;;;;3.65;2.08;;;;;;;7.54;70.42;99174.78;4948700;28;20145;-85
2023/03/27 01:59:32;;;;;;;2.70;1.42;;;;;;;7.30;69.41;99189.13;4961710;28;20399;-85
2023/03/27 02:02:08;;;;;;;5.32;1.80;;;;;;;7.13;68.55;99197.63;4969028;28;20509;-85
2023/03/27 02:04:45;;;;;;;5.43;1.88;;;;;;;7.07;69.24;99206.06;4974220;28;20474;-84
2023/03/27 02:07:17;;;;;;;8.95;2.60;;;;;;;7.16;69.33;99218.50;4968682;28;20043;-85
2023/03/27 02:09:52;;;;;;;8.27;2.20;;;;;;;6.88;66.62;99223.44;4904325;28;20131;-84
2023/03/27 02:12:39;;;;;;;;;;;;;;;6.92;67.58;99222.22;4942469;28;20613;-85
2023/03/27 02:15:12;;;;;;;8.50;2.17;;;;;;;7.02;68.09;99232.84;4926733;28;19937;-84
2023/03/27 02:18:03;;;;;;;9.23;3.75;;;;;;;6.82;67.01;99244.19;4904575;28;20099;-84
2023/03/27 02:20:31;;;;;;;7.82;2.10;;;;;;;6.62;64.23;99254.59;4955810;28;20046;-84
2023/03/27 02:22:59;;;;;;;18.55;3.20;;;;;;;6.55;63.39;99247.31;4991671;28;20038;-80
2023/03/27 02:25:31;;;;;;;11.85;2.10;;;;;;;6.63;64.45;99250.16;4930599;28;20194;-80
2023/03/27 02:28:02;;;;;;;10.00;2.42;;;;;;;6.55;65.17;99255.22;4946126;28;20043;-80
2023/03/27 02:30:46;;;;;;;11.05;2.25;;;;;;;6.53;63.72;99273.81;4950723;28;20561;-81
2023/03/27 02:33:47;;;;;;;;;;;;;;;6.44;63.63;99269.28;4935157;28;20069;-80
2023/03/27 02:36:53;;;;;;;14.88;2.33;;;;;;;6.64;63.53;99276.44;4957816;28;20314;-80
2023/03/27 02:40:04;;;;;;;7.68;1.77;;;;;;;6.57;64.69;99277.88;4907161;28;20060;-80
2023/03/27 02:42:51;;;;;;;13.90;2.95;;;;;;;6.55;65.70;99293.00;4957285;28;20041;-80
2023/03/27 02:45:22;;;;;;;13.55;2.25;;;;;;;6.47;66.34;99300.69;4987817;28;20051;-81
2023/03/27 02:47:51;;;;;;;9.38;2.10;;;;;;;6.59;67.20;99302.34;4999435;28;20111;-81
2023/03/27 02:50:22;;;;;;;13.02;2.30;;;;;;;6.68;67.59;99306.84;5000247;28;20041;-84
2023/03/27 02:52:53;;;;;;;15.65;3.00;;;;;;;6.62;67.28;99307.38;5002736;28;20053;-84
2023/03/27 02:55:23;;;;;;;8.57;2.42;;;;;;;6.70;66.40;99317.31;5007702;28;20063;-84
2023/03/27 02:57:52;;;;;;;12.07;2.13;;;;;;;6.71;66.05;99322.44;4988296;28;20078;-85
2023/03/27 03:00:33;;;;;;;7.55;2.10;;;;;;;6.42;64.25;99342.41;5019930;28;20045;-85
2023/03/27 03:03:27;;;;;;;10.07;2.25;;;;;;;6.39;64.55;99335.56;4990134;28;20049;-84
2023/03/27 03:06:06;;;;;;;10.43;2.13;;;;;;;6.50;64.40;99342.63;5004016;28;20103;-84
2023/03/27 03:08:37;;;;;;;9.52;2.38;;;;;;;6.41;63.33;99357.41;5013830;28;20731;-84
2023/03/27 03:11:06;;;;;;;;;;;;;;;6.24;63.95;99357.88;4961673;28;20061;-84
2023/03/27 03:13:33;;;;;;;16.90;2.72;;;;;;;6.08;62.96;99372.25;5006505;28;19936;-84
2023/03/27 03:16:00;;;;;;;11.48;2.17;;;;;;;6.16;63.10;99394.56;5002949;28;20061;-85
2023/03/27 03:18:27;;;;;;;12.25;2.10;;;;;;;6.19;63.54;99421.50;5005851;28;20496;-84
2023/03/27 03:20:57;;;;;;;10.55;2.28;;;;;;;5.95;63.40;99426.00;4992163;28;20057;-85
2023/03/27 03:23:24;;;;;;;6.72;1.73;;;;;;;6.10;63.52;99432.75;4985588;28;20065;-84
2023/03/27 03:25:55;;;;;;;17.10;3.25;;;;;;;5.88;62.93;99438.78;5006121;28;20103;-84
2023/03/27 03:28:25;;;;;;;11.93;3.50;;;;;;;6.01;63.25;99451.91;5005234;28;20132;-84
2023/03/27 03:30:52;;;;;;;6.20;2.13;;;;;;;5.91;62.19;99458.81;5023005;28;20045;-84
2023/03/27 03:33:20;;;;;;;7.38;2.10;;;;;;;5.81;61.54;99459.47;4986124;28;20049;-85
2023/03/27 03:35:49;;;;;;;8.02;1.70;;;;;;;5.92;62.55;99455.19;5003845;28;20045;-84
2023/03/27 03:38:33;;;;;;;11.07;3.42;;;;;;;5.52;62.03;99471.31;5052474;28;20100;-85
2023/03/27 03:41:06;;;;;;;13.50;2.08;;;;;;;5.59;62.12;99481.28;5008564;28;20508;-83
2023/03/27 03:43:33;;;;;;;8.98;1.90;;;;;;;5.49;61.91;99487.34;5020204;28;20092;-85
2023/03/27 03:46:00;;;;;;;10.18;1.67;;;;;;;5.77;61.89;99486.16;4989547;28;20129;-84
2023/03/27 03:48:27;;;;;;;10.15;2.47;;;;;;;5.88;61.76;99481.78;5006675;28;20071;-84
2023/03/27 03:50:53;;;;;;;7.72;2.45;;;;;;;5.80;62.20;99488.56;5001941;28;20041;-85
2023/03/27 03:53:21;;;;;;;12.02;2.53;;;;;;;5.72;62.68;99499.66;4971116;28;20050;-84
2023/03/27 03:55:51;;;;;;;13.10;2.25;;;;;;;5.88;62.95;99502.88;4990499;28;20053;-84
2023/03/27 03:58:18;;;;;;;12.27;3.38;;;;;;;6.00;62.31;99519.56;5001661;28;20061;-84
2023/03/27 04:00:45;;;;;;;10.30;2.00;;;;;;;5.99;62.83;99511.78;4999716;28;20132;-85
2023/03/27 04:03:31;;;;;;;9.82;2.35;;;;;;;5.86;62.73;99517.94;5022285;28;20064;-85
2023/03/27 04:06:04;;;;;;;17.50;3.60;;;;;;;5.77;62.79;99533.59;4999314;28;20555;-85
2023/03/27 04:08:31;;;;;;;;;;;;;;;5.64;63.04;99541.53;4986643;28;20112;-84
2023/03/27 04:11:01;;;;;;;14.98;2.53;;;;;;;5.66;63.21;99545.75;5018391;28;19929;-84
2023/03/27 04:13:50;;;;;;;18.48;2.78;;;;;;;5.73;63.85;99553.22;5013638;28;20050;-84
2023/03/27 04:16:29;;;;;;;10.38;2.70;;;;;;;5.75;64.33;99557.44;4969239;28;20050;-85
2023/03/27 04:19:01;;;;;;;10.77;3.15;;;;;;;5.59;63.29;99562.09;5013203;28;20069;-85
2023/03/27 04:21:30;;;;;;;7.30;2.55;;;;;;;5.60;63.05;99563.81;5016745;28;20412;-84
2023/03/27 04:24:01;;;;;;;9.77;2.58;;;;;;;5.66;63.24;99579.16;5003119;28;20049;-85
2023/03/27 04:26:40;;;;;;;16.70;2.65;;;;;;;5.78;63.19;99577.44;5042003;28;20052;-84
2023/03/27 04:29:41;;;;;;;7.97;2.47;;;;;;;5.68;62.53;99587.78;5043556;28;20048;-84
2023/03/27 04:32:28;;;;;;;16.98;2.75;;;;;;;5.85;62.15;99605.88;5033970;28;20053;-84
2023/03/27 04:35:14;;;;;;;10.40;2.40;;;;;;;5.50;60.35;99633.91;5024084;28;20060;-85
2023/03/27 04:37:47;;;;;;;8.40;2.72;;;;;;;5.60;60.90;99630.50;5034417;28;20481;-85
2023/03/27 04:40:30;;;;;;;18.08;3.85;;;;;;;5.45;60.40;99631.56;5003019;28;20049;-85
2023/03/27 04:42:57;;;;;;;17.23;4.30;;;;;;;5.22;60.25;99635.81;4972225;28;20065;-85
2023/03/27 04:45:24;;;;;;;10.15;2.53;;;;;;;5.32;61.52;99636.03;5009380;28;20055;-83
2023/03/27 04:47:53;;;;;;;22.65;3.47;;;;;;;5.37;61.37;99653.19;5000685;28;20109;-83
2023/03/27 04:50:20;;;;;;;14.40;2.38;;;;;;;5.38;60.65;99669.81;5005104;28;20124;-83
2023/03/27 04:52:48;;;;;;;10.05;2.28;;;;;;;5.29;60.09;99671.31;4998674;28;20388;-83
2023/03/27 04:55:18;;;;;;;15.63;2.30;;;;;;;5.28;60.62;99674.03;5039903;28;20520;-83
2023/03/27 04:57:47;;;;;;;5.55;2.22;;;;;;;5.27;60.58;99683.72;5012631;28;20050;-83
2023/03/27 05:00:15;;;;;;;14.65;3.45;;;;;;;5.33;60.71;99679.81;5021891;28;20567;-83
2023/03/27 05:02:42;;;;;;;9.07;2.17;;;;;;;5.23;60.93;99687.50;5016424;28;20049;-83
2023/03/27 05:05:15;;;;;;;13.82;2.53;;;;;;;5.29;60.67;99689.75;5025281;28;20069;-83
2023/03/27 05:07:47;;;;;;;10.00;2.85;;;;;;;5.33;60.61;99703.53;5006928;28;20108;-81
2023/03/27 05:10:19;;;;;;;14.80;2.35;;;;;;;5.35;60.17;99715.63;5056397;28;20077;-81
2023/03/27 05:12:50;;;;;;;12.80;3.03;;;;;;;5.21;60.44;99728.88;4994228;28;20053;-80
2023/03/27 05:15:17;;;;;;;12.05;3.10;;;;;;;5.33;60.05;99720.16;5025329;28;20111;-80
2023/03/27 05:17:46;;;;;;;16.15;2.38;;;;;;;5.21;59.96;99728.88;5019149;28;20055;-80
2023/03/27 05:20:15;;;;;;;18.52;2.60;;;;;;;5.30;60.23;99728.28;5007323;28;20042;-80
2023/03/27 05:22:43;;;;;;;9.30;2.95;;;;;;;5.22;60.37;99743.75;5026210;28;20807;-80
2023/03/27 05:25:31;;;;;;;13.02;2.85;;;;;;;5.13;59.88;99744.38;4990152;28;20409;-80
2023/03/27 05:27:59;;;;;;;17.23;3.08;;;;;;;5.25;60.22;99755.88;4989665;28;20512;-80
2023/03/27 05:30:32;;;;;;;13.30;2.63;;;;;;;5.14;60.09;99765.31;4983391;28;20045;-80
2023/03/27 05:33:28;;;;;;;11.07;2.42;;;;;;;5.32;60.41;99775.56;4929750;28;20049;-80
2023/03/27 05:35:56;;;;;;;18.58;2.80;;;;;;;5.30;60.18;99772.19;5021958;28;20038;-80
2023/03/27 05:38:25;;;;;;;9.07;2.70;;;;;;;5.14;59.36;99789.00;5040720;28;20070;-80
2023/03/27 05:41:10;;;;;;;16.70;3.00;;;;;;;5.13;59.47;99794.38;5017737;28;20401;-80
2023/03/27 05:43:44;;;;;;;14.43;2.78;;;;;;;5.20;60.79;99793.03;4994809;28;20081;-80
2023/03/27 05:46:12;;;;;;;11.75;2.35;;;;;;;5.27;60.20;99799.56;4980409;28;20053;-80
2023/03/27 05:48:51;;;;;;;14.75;3.25;;;;;;;5.17;59.34;99809.88;5045138;28;20045;-81
2023/03/27 05:51:18;;;;;;;20.98;2.80;;;;;;;5.17;59.20;99816.91;4975160;28;20058;-81
2023/03/27 05:53:47;;;;;;;14.63;2.78;;;;;;;5.33;59.60;99820.22;5005502;28;20073;-81
2023/03/27 05:56:19;;;;;;;16.20;2.58;;;;;;;5.23;57.85;99819.97;5015469;28;20045;-80
2023/03/27 05:58:51;;;;;;;13.43;2.22;;;;;;;5.29;58.94;99831.03;5000503;28;20046;-80
2023/03/27 06:01:19;;;;;;;14.50;1.80;;;;;;;5.35;59.01;99834.13;5012300;28;20049;-80
2023/03/27 06:03:48;;;;;;;15.73;2.88;;;;;;;5.29;58.56;99839.81;5037418;28;20390;-81
2023/03/27 06:06:20;;;;;;;21.83;2.80;;;;;;;5.44;59.03;99849.31;5003677;28;20053;-80
2023/03/27 06:08:46;;;;;;;16.63;2.42;;;;;;;5.43;58.79;99857.31;5006152;28;20038;-80
2023/03/27 06:11:16;;;;;;;16.60;3.00;;;;;;;5.39;58.31;99858.44;4971968;28;20053;-81
2023/03/27 06:13:44;;;;;;;9.95;1.92;;;;;;;5.34;59.00;99865.81;4990534;28;20045;-81
2023/03/27 06:16:19;;;;;;;11.10;2.72;;;;;;;5.51;58.07;99877.88;5016591;28;20497;-81
2023/03/27 06:19:04;;;;;;;13.80;2.35;;;;;;;5.49;58.07;99872.69;5004773;28;20056;-80
2023/03/27 06:21:31;;;;;;;16.98;4.18;;;;;;;5.48;58.07;99875.44;4992931;28;20058;-80
2023/03/27 06:24:00;;;;;;;7.95;2.35;;;;;;;5.58;57.96;99887.88;4989352;28;20121;-80
2023/03/27 06:26:27;;;;;;;19.10;3.08;;;;;;;5.55;58.06;99896.00;5007452;28;20046;-80
2023/03/27 06:28:55;;;;;;;18.08;3.28;;;;;;;5.65;58.03;99893.59;5009166;28;20068;-80
2023/03/27 06:31:23;;;;;;;15.20;2.97;;;;;;;5.74;57.25;99895.59;5000726;28;20049;-80
2023/03/27 06:34:07;;;;;;;15.40;2.03;;;;;;;5.85;56.94;99906.28;4996675;28;20522;-80
2023/03/27 06:36:41;;;;;;;17.25;2.72;;;;;;;5.81;56.50;99915.31;5021116;28;20054;-80
2023/03/27 06:39:10;;;;;;;17.80;2.72;;;;;;;5.85;56.20;99926.47;5004300;28;20468;-80
2023/03/27 06:41:40;;;;;;;18.55;3.53;;;;;;;5.54;55.46;99933.81;4999160;28;20513;-80
2023/03/27 06:44:15;;;;;;;21.75;3.45;;;;;;;5.53;56.89;99940.03;4991735;28;20649;-80
2023/03/27 06:47:14;;;;;;;12.82;2.90;;;;;;;5.53;56.29;99955.81;4981448;28;20148;-80
2023/03/27 06:50:00;;;;;;;15.73;2.88;;;;;;;5.36;56.64;99967.44;5029662;28;20060;-80
2023/03/27 06:52:27;;;;;;;15.23;2.70;;;;;;;5.60;56.97;99958.91;5001001;28;20128;-80
2023/03/27 06:55:06;;;;;;;10.40;3.05;;;;;;;5.66;56.70;99966.41;5020224;28;20133;-80
2023/03/27 06:57:49;;;;;;;13.00;3.58;;;;;;;5.64;56.08;99969.13;5041176;28;20167;-80
2023/03/27 07:00:21;;;;;;;9.40;2.92;;;;;;;5.65;57.43;99981.38;5011392;28;20060;-80
2023/03/27 07:03:26;;;;;;;11.95;3.17;;;;;;;5.57;55.25;99990.69;4929682;28;20039;-80
2023/03/27 07:06:11;;;;;;;12.93;2.72;;;;;;;5.56;57.04;99995.13;4969251;28;20042;-80
2023/03/27 07:08:45;;;;;;;10.50;2.25;;;;;;;5.49;56.01;99999.09;4985831;28;20057;-80
2023/03/27 07:11:14;;;;;;;14.25;2.40;;;;;;;5.33;55.50;100007.16;5006109;28;20045;-80
2023/03/27 07:13:52;;;;;;;16.23;3.15;;;;;;;5.52;56.03;100014.72;5009120;28;20489;-80
2023/03/27 07:16:23;;;;;;;11.10;2.50;;;;;;;5.42;55.31;100009.22;5051782;28;20053;-80
2023/03/27 07:18:51;;;;;;;16.02;4.00;;;;;;;5.45;55.03;100013.44;5019175;28;20045;-80
2023/03/27 07:21:18;;;;;;;7.95;2.30;;;;;;;5.63;55.88;100020.13;5009928;28;20053;-80
2023/03/27 07:23:45;;;;;;;8.45;2.17;;;;;;;5.40;54.87;100031.31;5004430;28;20049;-80
2023/03/27 07:26:15;;;;;;;17.13;2.60;;;;;;;5.40;54.97;100023.41;4999361;28;20049;-80
2023/03/27 07:28:56;;;;;;;18.20;2.40;;;;;;;5.46;55.74;100032.72;5027330;28;20123;-80
2023/03/27 07:31:26;;;;;;;19.65;3.45;;;;;;;5.46;55.20;100032.72;5035990;28;20073;-80
2023/03/27 07:34:12;;;;;;;10.75;2.22;;;;;;;5.46;55.31;100041.44;5015557;28;20052;-80
2023/03/27 07:37:05;;;;;;;11.93;2.63;;;;;;;5.40;54.44;100055.03;5007320;28;20093;-80
2023/03/27 07:39:33;;;;;;;20.23;2.88;;;;;;;5.51;55.75;100060.44;4999371;28;20048;-80
2023/03/27 07:42:00;;;;;;;15.98;2.33;;;;;;;5.44;55.73;100061.75;5004844;28;20605;-80
2023/03/27 07:44:46;;;;;;;11.35;2.05;;;;;;;5.39;55.07;100064.72;5032679;28;20065;-79
2023/03/27 07:47:13;;;;;;;14.93;2.58;;;;;;;5.41;55.12;100064.59;4972480;28;20048;-79
2023/03/27 07:49:40;;;;;;;16.60;2.47;;;;;;;5.19;55.21;100070.34;4985944;28;20046;-79
2023/03/27 07:52:11;;;;;;;20.52;2.53;;;;;;;5.40;55.76;100087.47;5015668;28;20046;-79
2023/03/27 07:54:47;;;;;;;23.00;2.15;;;;;;;5.50;55.83;100081.63;4992824;28;20042;-80
2023/03/27 07:57:16;;;;;;;24.50;3.13;;;;;;;5.50;56.69;100089.53;5011209;28;20049;-80
2023/03/27 07:59:49;;;;;;;14.60;2.70;;;;;;;5.51;56.20;100099.09;5051281;28;20045;-80
2023/03/27 08:02:23;;;;;;;12.52;2.17;;;;;;;5.41;55.92;100098.84;5024187;28;20523;-80
2023/03/27 08:04:51;;;;;;;8.27;1.52;;;;;;;5.58;56.00;100101.25;4972786;28;20393;-80
2023/03/27 08:07:20;;;;;;;13.80;2.72;;;;;;;5.50;56.20;100098.25;4982198;28;20064;-80
2023/03/27 08:09:47;;;;;;;8.60;1.92;;;;;;;5.61;57.02;100105.47;4998734;28;20052;-80
2023/03/27 08:12:14;;;;;;;11.00;1.73;;;;;;;5.37;55.09;100105.25;4990350;28;20077;-80
2023/03/27 08:14:53;;;;;;;11.52;2.03;;;;;;;5.46;55.93;100106.44;5026852;28;20046;-80
2023/03/27 08:17:27;;;;;;;10.63;2.60;;;;;;;5.51;56.62;100099.09;4991822;28;20348;-80
2023/03/27 08:19:54;;;;;;;16.85;2.40;;;;;;;5.65;56.68;100109.63;4985486;28;20042;-81
2023/03/27 08:22:23;;;;;;;18.52;2.85;;;;;;;5.52;56.22;100109.56;5000815;28;20057;-81
2023/03/27 08:25:09;;;;;;;10.15;2.63;;;;;;;5.66;55.97;100103.41;5028254;28;20476;-80
2023/03/27 08:27:38;;;;;;;9.20;2.55;;;;;;;5.69;56.01;100097.09;4979274;28;20096;-80
2023/03/27 08:30:05;;;;;;;11.95;2.78;;;;;;;5.54;56.31;100112.91;5009394;28;20045;-80
2023/03/27 08:32:38;;;;;;;12.63;2.22;;;;;;;5.65;57.47;100109.63;5003798;28;20073;-80
2023/03/27 08:35:08;;;;;;;55.30;6.30;;;;;;;5.64;55.80;100127.19;4968514;28;20046;-80
2023/03/27 08:37:35;;;;;;;6.43;1.83;;;;;;;5.65;56.52;100126.28;4993822;28;20053;-81
2023/03/27 08:40:24;;;;;;;19.02;2.85;;;;;;;5.78;55.73;100128.97;5019007;28;20388;-80
2023/03/27 08:43:05;;;;;;;;;;;;;;;5.73;55.80;100125.78;4981817;28;20073;-81
2023/03/27 08:45:45;;;;;;;27.85;2.38;;;;;;;5.78;54.80;100134.25;5032535;28;19933;-81
2023/03/27 08:48:20;;;;;;;9.77;1.70;;;;;;;5.96;55.85;100142.78;4997181;28;20046;-80
2023/03/27 08:50:52;;;;;;;14.80;2.55;;;;;;;6.01;55.83;100137.22;4988288;28;20468;-80
2023/03/27 08:53:29;;;;;;;7.55;1.83;;;;;;;5.93;55.17;100173.72;5006063;28;20038;-81
2023/03/27 08:55:57;;;;;;;17.33;2.53;;;;;;;5.83;55.18;100160.31;5033708;28;20041;-80
2023/03/27 08:58:37;;;;;;;8.10;2.03;;;;;;;5.94;54.85;100147.31;5013353;28;20120;-80
2023/03/27 09:01:20;;;;;;;7.88;1.83;;;;;;;5.76;53.63;100169.53;4992544;28;20076;-80
2023/03/27 09:04:02;;;;;;;9.73;1.80;;;;;;;5.81;53.86;100162.19;4987962;28;20432;-79
2023/03/27 09:06:38;;;;;;;8.98;1.80;;;;;;;5.86;53.11;100176.75;4926421;28;20437;-78
2023/03/27 09:09:18;;;;;;;9.45;2.08;;;;;;;5.63;52.28;100191.38;4961708;28;20116;-78
2023/03/27 09:12:30;;;;;;;12.57;2.40;;;;;;;5.84;53.09;100175.16;4984685;28;20056;-79
2023/03/27 09:15:14;;;;;;;20.35;2.83;;;;;;;5.92;54.92;100193.13;4935245;28;20050;-78
2023/03/27 09:17:53;;;;;;;11.45;1.95;;;;;;;5.86;53.42;100175.91;4918258;28;20076;-81
2023/03/27 09:20:22;;;;;;;8.60;2.22;;;;;;;5.96;53.69;100177.06;4949527;28;20092;-80
2023/03/27 09:22:57;;;;;;;11.75;2.20;;;;;;;6.02;53.45;100181.09;4967876;28;20046;-80
2023/03/27 09:25:50;;;;;;;13.85;2.17;;;;;;;6.02;52.97;100184.56;4959798;28;20395;-80
2023/03/27 09:28:29;;;;;;;8.10;1.83;;;;;;;6.14;54.31;100190.84;4934721;28;20120;-80
2023/03/27 09:31:24;;;;;;;15.82;1.75;;;;;;;6.11;51.95;100175.22;4998927;28;20321;-80
2023/03/27 09:33:51;;;;;;;17.98;2.05;;;;;;;6.25;53.67;100177.81;5012639;28;20633;-80
2023/03/27 09:36:18;;;;;;;8.55;1.42;;;;;;;6.11;49.72;100187.53;4951320;28;20390;-80
2023/03/27 09:38:49;;;;;;;9.30;2.60;;;;;;;6.08;51.83;100186.81;5023786;28;20072;-80
2023/03/27 09:41:23;;;;;;;6.63;1.70;;;;;;;6.12;50.74;100187.47;5016911;28;20041;-82
2023/03/27 09:44:04;;;;;;;13.27;2.00;;;;;;;6.12;51.15;100190.09;5000428;28;20053;-82
2023/03/27 09:46:35;;;;;;;14.35;2.33;;;;;;;6.19;53.01;100185.28;5009094;28;20124;-82
2023/03/27 09:49:13;;;;;;;16.27;2.75;;;;;;;6.27;51.75;100196.19;5009317;28;20057;-83
2023/03/27 09:51:45;;;;;;;7.13;2.40;;;;;;;6.29;52.42;100189.84;4986619;28;20107;-83
2023/03/27 09:54:31;;;;;;;6.70;1.30;;;;;;;6.18;51.44;100195.00;5023561;28;20111;-82
2023/03/27 09:57:06;;;;;;;9.43;2.33;;;;;;;6.15;52.06;100199.59;5033517;28;20072;-82
2023/03/27 09:59:36;;;;;;;12.23;2.65;;;;;;;6.17;50.25;100195.06;4928169;28;20055;-82
2023/03/27 10:02:21;;;;;;;9.77;2.08;;;;;;;6.29;50.73;100200.41;4933426;28;20109;-83
2023/03/27 10:05:01;;;;;;;7.38;1.40;;;;;;;6.39;51.36;100198.03;4926141;28;20049;-82
2023/03/27 10:07:33;;;;;;;11.70;2.03;;;;;;;6.58;52.01;100194.16;4944195;28;20050;-83
2023/03/27 10:10:18;;;;;;;10.48;2.05;;;;;;;6.50;50.65;100195.50;4971152;28;20514;-83
2023/03/27 10:13:10;;;;;;;9.80;2.17;;;;;;;6.47;50.67;100197.50;4933410;28;20051;-82
2023/03/27 10:15:42;;;;;;;19.23;1.85;;;;;;;6.56;50.74;100206.59;4996856;28;20411;-82
2023/03/27 10:18:26;;;;;;;11.35;2.08;;;;;;;6.34;51.17;100199.28;4997207;28;20054;-82
2023/03/27 10:21:33;;;;;;;6.97;1.23;;;;;;;6.33;50.36;100211.59;4989756;28;20045;-82
2023/03/27 10:24:05;;;;;;;8.35;1.60;;;;;;;6.42;51.61;100208.38;5020051;28;20076;-83
2023/03/27 10:26:59;;;;;;;12.68;2.15;;;;;;;6.51;52.28;100214.81;5000210;28;20125;-81
2023/03/27 10:29:30;;;;;;;8.10;1.83;;;;;;;6.67;51.63;100210.25;5007951;28;20087;-82
2023/03/27 10:31:59;;;;;;;8.80;1.52;;;;;;;6.65;52.36;100209.50;5016240;28;20045;-83
2023/03/27 10:34:37;;;;;;;9.50;2.03;;;;;;;6.73;50.92;100228.28;5000681;28;20129;-82
2023/03/27 10:37:33;;;;;;;6.85;1.20;;;;;;;6.78;52.57;100211.31;5012825;28;21121;-80
2023/03/27 10:40:17;;;;;;;7.28;1.77;;;;;;;6.86;51.52;100217.75;4967055;28;20168;-80
2023/03/27 10:42:47;;;;;;;8.60;2.00;;;;;;;6.78;51.20;100209.53;4990996;28;20080;-80
2023/03/27 10:45:18;;;;;;;11.77;1.48;;;;;;;6.78;50.98;100217.44;4974523;28;20034;-80
2023/03/27 10:47:49;;;;;;;13.15;2.00;;;;;;;6.76;51.29;100215.84;4989677;28;20045;-80
2023/03/27 10:50:37;;;;;;;10.48;1.73;;;;;;;6.66;50.58;100221.72;4982292;28;20068;-80
2023/03/27 10:53:21;;;;;;;10.50;1.60;;;;;;;6.67;50.96;100228.72;4946855;28;20049;-81
2023/03/27 10:56:19;;;;;;;7.63;1.90;;;;;;;6.71;51.99;100227.53;4974219;28;20309;-80
2023/03/27 10:59:20;;;;;;;20.65;2.85;;;;;;;6.53;52.84;100240.16;4974230;28;20054;-80
2023/03/27 11:02:10;;;;;;;8.83;2.30;;;;;;;6.55;53.54;100247.97;4978191;28;20499;-80
2023/03/27 11:04:39;;;;;;;4.63;2.00;;;;;;;6.62;52.84;100233.44;5012030;28;20058;-81
2023/03/27 11:07:14;;;;;;;11.35;1.73;;;;;;;6.71;53.55;100239.91;5011319;28;20101;-81
2023/03/27 11:09:56;;;;;;;7.82;1.42;;;;;;;6.71;53.67;100235.47;5006823;28;20485;-82
2023/03/27 11:12:31;;;;;;;8.13;1.65;;;;;;;6.67;52.69;100228.72;4966093;28;20112;-82
2023/03/27 11:15:09;;;;;;;12.00;1.40;;;;;;;6.64;52.54;100225.41;5000804;28;20157;-82
2023/03/27 11:17:48;;;;;;;8.77;1.52;;;;;;;6.64;52.36;100239.47;5012330;28;20064;-82
2023/03/27 11:20:55;;;;;;;3.08;1.05;;;;;;;6.69;50.65;100225.94;4942443;28;20046;-82
2023/03/27 11:23:33;;;;;;;9.30;1.75;;;;;;;6.89;52.87;100232.56;5034804;28;20473;-80
2023/03/27 11:26:39;;;;;;;8.77;1.70;;;;;;;6.89;51.09;100227.28;4949025;28;20104;-82
2023/03/27 11:29:19;;;;;;;8.13;1.40;;;;;;;7.00;51.64;100234.50;5016009;28;20042;-83
2023/03/27 11:31:52;;;;;;;8.88;1.73;;;;;;;7.07;52.98;100247.19;4974692;28;20049;-81
2023/03/27 11:34:52;;;;;;;3.60;1.30;;;;;;;7.15;53.32;100250.16;4982504;28;20046;-79
2023/03/27 11:37:52;;;;;;;12.05;2.17;;;;;;;7.17;54.64;100247.38;4961386;28;20137;-80
2023/03/27 11:40:25;;;;;;;10.25;1.85;;;;;;;7.31;53.89;100247.31;4953958;28;20046;-83
2023/03/27 11:43:00;;;;;;;7.68;1.23;;;;;;;7.43;54.21;100239.47;5026898;28;20489;-82
2023/03/27 11:45:36;;;;;;;12.25;1.95;;;;;;;7.40;53.09;100237.88;4988345;28;20069;-82
2023/03/27 11:48:03;;;;;;;10.55;1.75;;;;;;;7.46;54.21;100249.84;5015473;28;20038;-82
2023/03/27 11:50:42;;;;;;;6.05;1.30;;;;;;;7.48;53.08;100235.59;4979095;28;20050;-83
2023/03/27 11:53:37;;;;;;;7.00;1.40;;;;;;;7.46;51.14;100229.56;5011097;28;20136;-83
2023/03/27 11:56:22;;;;;;;8.38;1.45;;;;;;;7.52;52.37;100231.75;4977505;28;22875;-82
2023/03/27 11:59:55;;;;;;;9.40;1.40;;;;;;;7.38;50.69;100240.66;4933738;28;20049;-80
2023/03/27 12:02:40;;;;;;;13.85;1.30;;;;;;;7.20;51.88;100263.06;4921759;28;20043;-82
2023/03/27 12:05:30;;;;;;;8.60;1.52;;;;;;;7.20;52.50;100276.25;4997117;28;20042;-82
2023/03/27 12:08:09;;;;;;;9.55;1.60;;;;;;;7.07;53.22;100302.63;5025839;28;20072;-78
2023/03/27 12:10:42;;;;;;;4.05;1.38;;;;;;;6.90;53.18;100318.75;4966511;28;20093;-78
2023/03/27 12:13:31;;;;;;;17.08;2.97;;;;;;;6.44;59.34;100340.16;4986361;28;20160;-81
2023/03/27 12:16:39;;;;;;;6.95;2.55;;;;;;;6.28;62.72;100349.06;4983002;28;20072;-78